Aktualne dane pomiarowe

Uwaga, wersja testowa! Automatyczne pobieranie danych za pomocą narzędzi lub skryptów to umożliwiających jest zabronione.

Dane meteo z obszaru Polski uzyskane na podstawie depesz SYNOP pobieranych co godzinę z NWS. Najedź myszką na symbol przedstawiony w tabeli, aby uzyskać informacje co do jego znaczenia. Prosimy pamiętać, że to testowa wersja strony, która jeszcze nie jest ukończona. Stworzono również jest krótki FAQ dotyczący korzystania z tej podstrony Anomalie temperatury w chwili obecnej odniesione są do okresu referencyjnego 1951-2016. Okres ten będzie później zmieniony na 1981-2010. Kliknij ikonę aby pobrać plik CSV. Kliknij ikonę aby wygenerować mapę synoptyczną dla danego terminu.

Wybierz Datę:    

        

Mińsk Mazowiecki (12376)

Dane terminowe dla wybranej stacji. Kliknij datę, aby otrzymać dane z tego terminu dla wszystkich stacji.

TemperaturaZachmurzenieWiatrCiśnienieOpadyPogoda
 Data t td wb tx tn tg rh  Nt Nl Cl Cm Ch ws wd g1 g2 wx mslp ppp ch 24h 12h t ww ww w1 w2  
2019-08-08 23:00:00 16.3 12.5 13.8--- 7810.0wxwxwx2wx---1011.5 989.9 0.7---------
2019-08-08 22:00:00 14.5 12.0 12.8--- 8510.0wx-2wx---1011.6 989.8 0.5---------
2019-08-08 21:00:00 14.9 12.0 12.9--- 8310.0wx-1wx---1011.2 989.5 0.5---------
2019-08-08 20:00:00 16.2 11.8 13.3--- 7510.0wx-1wx---1010.8 989.2 0.6---------
2019-08-08 19:00:00 18.3 11.4 14.0--- 6410.0wxwxwx1wx---1010.8 989.3 0.8---------
2019-08-08 18:00:00 21.3 11.1 15.1--- 5210.0wx-wx4wx---1010.3 989.0 0.5---------
2019-08-08 17:00:00 21.8 11.5 15.5--- 5210.0wxwxwx4wx---1009.8 988.6 0.5---------
2019-08-08 16:00:00 23.4 10.5 15.7--- 4410.0wxwxwx6wx---1009.6 988.5 0.6---------
2019-08-08 15:00:00 24.3 11.0 16.3--- 4310.0wxwxwx8wx---1009.5 988.5 0.8---------
2019-08-08 14:00:00 24.2 11.2 16.4--- 4410.0wxwxwx8wx---1009.1 988.1 1.0---------
2019-08-08 13:00:00 24.1 10.8 16.2--- 4310.0wxwxwx11wx---1008.9 987.9 1.3---------
2019-08-08 12:00:00 23.1 12.7 16.7--- 5210.0wxwxwx10wx---1008.8 987.7 1.5---------
2019-08-08 11:00:00 23.2 14.8 17.8--- 5910.0wxwxwx9wx---1008.3 987.2 1.6---------
2019-08-08 10:00:00 22.8 14.9 17.7--- 6110.0wxwxwx9wx-14-1007.7 986.6 1.7---------
2019-08-08 09:00:00 21.2 15.8 17.6--- 7110.0wxwxwx9wx---1007.4 986.2 2.0---------
2019-08-08 08:00:00 19.6 16.1 17.2--- 8010.0wxwxwx8wx---1006.9 985.6 2.1---------
2019-08-08 07:00:00 19.1 16.7 17.4--- 8610.0wxwxwx8wx---1006.2 984.9 1.8---------
2019-08-08 06:00:00 17.8 16.7 17.0--- 9310.0wxwxwx6wx---1005.7 984.3 1.5---------
2019-08-08 05:00:00 17.8 17.0 17.2--- 9510.0wxwxwx5wx---1004.9 983.5 0.3---------
2019-08-08 04:00:00 18.0 17.2 17.4--- 956.0wxwxwxwx5wx---1004.4 983.1 -0.2---wx-w1w2--
2019-08-08 03:00:00 18.3 17.7 17.9--- 9610.0wxwxwx4wx---1004.1 982.8 -1.0---wx-w1w2--
2019-08-08 02:00:00 18.2 17.6 17.8--- 966.0wxwxwxwx3wx---1004.5 983.2 -0.9---wx-w1w2--
2019-08-08 01:00:00 18.2 17.4 17.6--- 958.0wxwxwxwx2wx---1004.6 983.3 -0.9---wx-w2--
2019-08-08 00:00:00 18.4 17.4 17.7--- 9410.0wxwxwxwx3wx---1005.1 983.8 -0.5---wx-w1w2--
2019-08-07 23:00:00 18.9 17.2 17.7--- 908.0wxwxwxwx2wx---1005.4 984.1 -0.5---wx-w1--
2019-08-07 22:00:00 18.1 15.9 16.5--- 8710.0wx-wx1wx---1005.6 984.2 -0.7---------
2019-08-07 21:00:00 17.0 15.2 15.7--- 8910.0wx-1wx---1005.7 984.3 -0.7---------
2019-08-07 20:00:00 17.5 15.8 16.3--- 9010.0wx-wx1wx---1006.0 984.6 -0.5---------
2019-08-07 19:00:00 19.0 16.2 17.0--- 8410.0wx-1wx---1006.2 984.9 -1.0---------
2019-08-07 18:00:00 21.5 16.5 18.1--- 7310.0wx-wxwx1wx---1006.1 985.0 -0.9---------
2019-08-07 17:00:00 24.8 16.5 19.3--- 6010.0wxwxwxwx1wx---1006.0 985.1 -1.2---------
2019-08-07 16:00:00 24.3 15.8 18.7--- 5910.0wxwxwxwx2wx---1006.9 985.9 -0.5---------
2019-08-07 15:00:00 25.5 16.4 19.5--- 5710.0wxwxwxwx2wx---1006.8 985.9 -1.1---------
2019-08-07 14:00:00 25.4 17.1 19.9--- 6010.0wxwxwxwx2wx---1007.2 986.3 -0.9---------
2019-08-07 13:00:00 24.5 17.0 19.5--- 6310.0wxwxwxwx3wx---1007.3 986.4 -1.1---------
2019-08-07 12:00:00 24.7 17.2 19.7--- 6310.0wxwxwxwx3wx---1007.9 987.0 -0.3---------
2019-08-07 11:00:00 24.3 17.1 19.5--- 6410.0wxwxwxwx3wx---1008.3 987.3 0.3---------
2019-08-07 10:00:00 23.5 17.3 19.3--- 6810.0wxwxwxwx3wx---1008.5 987.5 0.4---------
2019-08-07 09:00:00 22.9 17.4 19.1--- 7110.0wxwxwxwx3wx---1008.4 987.3 0.2---------
2019-08-07 08:00:00 21.9 17.3 18.7--- 7510.0wxwxwxwx3wx---1008.1 987.0 -0.3---------
2019-08-07 07:00:00 21.1 17.5 18.6--- 8010.0wxwxwxwx1wx---1008.3 987.1 0.1---------
2019-08-07 06:00:00 19.6 16.3 17.3--- 8110.0wxwxwxwx3wx---1008.4 987.1 0.8---------
2019-08-07 05:00:00 18.8 16.6 17.2--- 8710.0wxwxwxwx2wx---1008.7 987.3 0.0---------
2019-08-07 04:00:00 17.0 15.5 15.9--- 9110.0wxwxwxwx1wx---1008.5 987.0 0.1---------
2019-08-07 03:00:00 18.0 15.6 16.3--- 8610.0wxwxwxwx0----1007.7 986.3 -0.6---------
2019-08-07 02:00:00 19.1 15.2 16.4--- 7810.0wxwxwxwx4wx---1008.7 987.3 0.1---------
2019-08-07 01:00:00 18.1 15.0 16.0--- 8210.0wxwxwx2wx---1008.3 986.9 -0.6---------
2019-08-07 00:00:00 16.1 13.8 14.5--- 8610.0wx-wx3wx---1008.5 986.9 -0.6---------
8.5 ms

 

Print Friendly, PDF & Email